sensor_id;sensor_type;location;lat;lon;timestamp;temperature;humidity
5899;DHT22;2975;50.956;6.962;2022-09-03T00:01:48;17.50;67.50
5899;DHT22;2975;50.956;6.962;2022-09-03T00:07:20;17.40;67.80
5899;DHT22;2975;50.956;6.962;2022-09-03T00:09:55;17.40;68.00
5899;DHT22;2975;50.956;6.962;2022-09-03T00:12:27;17.40;68.20
5899;DHT22;2975;50.956;6.962;2022-09-03T00:17:41;17.30;68.40
5899;DHT22;2975;50.956;6.962;2022-09-03T00:20:19;17.30;68.30
5899;DHT22;2975;50.956;6.962;2022-09-03T00:22:52;17.30;68.50
5899;DHT22;2975;50.956;6.962;2022-09-03T00:28:27;17.30;69.00
5899;DHT22;2975;50.956;6.962;2022-09-03T00:31:29;17.20;69.00
5899;DHT22;2975;50.956;6.962;2022-09-03T00:33:55;17.20;69.30
5899;DHT22;2975;50.956;6.962;2022-09-03T00:36:30;17.20;69.20
5899;DHT22;2975;50.956;6.962;2022-09-03T00:38:58;17.10;69.40
5899;DHT22;2975;50.956;6.962;2022-09-03T00:41:32;17.20;69.50
5899;DHT22;2975;50.956;6.962;2022-09-03T00:44:07;17.20;69.60
5899;DHT22;2975;50.956;6.962;2022-09-03T00:49:51;17.20;69.60
5899;DHT22;2975;50.956;6.962;2022-09-03T00:52:38;17.20;69.70
5899;DHT22;2975;50.956;6.962;2022-09-03T01:00:54;17.00;70.20
5899;DHT22;2975;50.956;6.962;2022-09-03T01:07:00;17.00;70.80
5899;DHT22;2975;50.956;6.962;2022-09-03T01:21:07;17.00;71.50
5899;DHT22;2975;50.956;6.962;2022-09-03T01:32:15;16.90;72.30
5899;DHT22;2975;50.956;6.962;2022-09-03T01:35:45;16.80;72.60
5899;DHT22;2975;50.956;6.962;2022-09-03T01:43:16;16.80;73.00
5899;DHT22;2975;50.956;6.962;2022-09-03T01:51:24;16.80;73.80
5899;DHT22;2975;50.956;6.962;2022-09-03T01:59:32;16.70;74.20
5899;DHT22;2975;50.956;6.962;2022-09-03T02:02:03;16.70;74.40
5899;DHT22;2975;50.956;6.962;2022-09-03T02:04:32;16.60;74.50
5899;DHT22;2975;50.956;6.962;2022-09-03T02:07:00;16.60;74.60
5899;DHT22;2975;50.956;6.962;2022-09-03T02:09:27;16.70;74.90
5899;DHT22;2975;50.956;6.962;2022-09-03T02:12:07;16.60;74.80
5899;DHT22;2975;50.956;6.962;2022-09-03T02:14:33;16.70;74.90
5899;DHT22;2975;50.956;6.962;2022-09-03T02:17:00;16.60;75.00
5899;DHT22;2975;50.956;6.962;2022-09-03T02:19:29;16.70;75.00
5899;DHT22;2975;50.956;6.962;2022-09-03T02:21:56;16.70;75.30
5899;DHT22;2975;50.956;6.962;2022-09-03T02:24:23;16.60;75.40
5899;DHT22;2975;50.956;6.962;2022-09-03T02:26:49;16.70;75.40
5899;DHT22;2975;50.956;6.962;2022-09-03T02:29:16;16.60;75.60
5899;DHT22;2975;50.956;6.962;2022-09-03T02:31:42;16.60;75.60
5899;DHT22;2975;50.956;6.962;2022-09-03T02:34:08;16.60;75.90
5899;DHT22;2975;50.956;6.962;2022-09-03T02:36:37;16.60;76.10
5899;DHT22;2975;50.956;6.962;2022-09-03T02:39:04;16.50;76.30
5899;DHT22;2975;50.956;6.962;2022-09-03T02:41:31;16.50;76.30
5899;DHT22;2975;50.956;6.962;2022-09-03T02:44:18;16.50;76.50
5899;DHT22;2975;50.956;6.962;2022-09-03T02:46:56;16.40;76.80
5899;DHT22;2975;50.956;6.962;2022-09-03T02:49:23;16.40;77.10
5899;DHT22;2975;50.956;6.962;2022-09-03T02:51:48;16.40;77.30
5899;DHT22;2975;50.956;6.962;2022-09-03T02:54:14;16.40;77.20
5899;DHT22;2975;50.956;6.962;2022-09-03T02:56:40;16.30;77.40
5899;DHT22;2975;50.956;6.962;2022-09-03T02:59:07;16.30;77.90
5899;DHT22;2975;50.956;6.962;2022-09-03T03:01:34;16.40;77.90
5899;DHT22;2975;50.956;6.962;2022-09-03T03:04:00;16.40;77.70
5899;DHT22;2975;50.956;6.962;2022-09-03T03:06:26;16.40;77.90
5899;DHT22;2975;50.956;6.962;2022-09-03T03:08:52;16.40;78.10
5899;DHT22;2975;50.956;6.962;2022-09-03T03:11:20;16.40;78.40
5899;DHT22;2975;50.956;6.962;2022-09-03T03:13:47;16.40;78.50
5899;DHT22;2975;50.956;6.962;2022-09-03T03:16:14;16.40;78.20
5899;DHT22;2975;50.956;6.962;2022-09-03T03:18:41;16.40;78.40
5899;DHT22;2975;50.956;6.962;2022-09-03T03:21:11;16.40;78.60
5899;DHT22;2975;50.956;6.962;2022-09-03T03:23:38;16.40;78.70
5899;DHT22;2975;50.956;6.962;2022-09-03T03:26:08;16.30;79.00
5899;DHT22;2975;50.956;6.962;2022-09-03T03:28:34;16.30;79.20
5899;DHT22;2975;50.956;6.962;2022-09-03T03:31:10;16.20;79.80
5899;DHT22;2975;50.956;6.962;2022-09-03T03:33:37;16.20;80.10
5899;DHT22;2975;50.956;6.962;2022-09-03T03:36:04;16.10;80.50
5899;DHT22;2975;50.956;6.962;2022-09-03T03:38:31;16.10;81.10
5899;DHT22;2975;50.956;6.962;2022-09-03T03:40:57;16.10;81.80
5899;DHT22;2975;50.956;6.962;2022-09-03T03:43:23;16.10;82.40
5899;DHT22;2975;50.956;6.962;2022-09-03T03:45:56;16.10;82.90
5899;DHT22;2975;50.956;6.962;2022-09-03T03:48:22;16.10;83.20
5899;DHT22;2975;50.956;6.962;2022-09-03T03:50:47;16.10;82.90
5899;DHT22;2975;50.956;6.962;2022-09-03T03:53:13;16.20;83.00
5899;DHT22;2975;50.956;6.962;2022-09-03T03:55:39;16.20;82.80
5899;DHT22;2975;50.956;6.962;2022-09-03T03:58:04;16.30;82.70
5899;DHT22;2975;50.956;6.962;2022-09-03T04:00:30;16.30;82.70
5899;DHT22;2975;50.956;6.962;2022-09-03T04:02:56;16.20;82.60
5899;DHT22;2975;50.956;6.962;2022-09-03T04:05:21;16.20;82.80
5899;DHT22;2975;50.956;6.962;2022-09-03T04:07:47;16.20;83.10
5899;DHT22;2975;50.956;6.962;2022-09-03T04:10:13;16.20;83.60
5899;DHT22;2975;50.956;6.962;2022-09-03T04:12:39;16.10;83.50
5899;DHT22;2975;50.956;6.962;2022-09-03T04:15:05;16.10;83.60
5899;DHT22;2975;50.956;6.962;2022-09-03T04:17:31;16.10;83.70
5899;DHT22;2975;50.956;6.962;2022-09-03T04:19:56;16.10;83.90
5899;DHT22;2975;50.956;6.962;2022-09-03T04:22:22;16.20;84.00
5899;DHT22;2975;50.956;6.962;2022-09-03T04:24:48;16.20;83.70
5899;DHT22;2975;50.956;6.962;2022-09-03T04:27:13;16.30;83.60
5899;DHT22;2975;50.956;6.962;2022-09-03T04:29:39;16.30;83.60
5899;DHT22;2975;50.956;6.962;2022-09-03T04:32:05;16.40;83.10
5899;DHT22;2975;50.956;6.962;2022-09-03T04:34:49;16.50;82.70
5899;DHT22;2975;50.956;6.962;2022-09-03T04:37:15;16.50;82.70
5899;DHT22;2975;50.956;6.962;2022-09-03T04:39:44;16.50;82.40
5899;DHT22;2975;50.956;6.962;2022-09-03T04:42:09;16.50;82.30
5899;DHT22;2975;50.956;6.962;2022-09-03T04:44:35;16.50;82.40
5899;DHT22;2975;50.956;6.962;2022-09-03T04:47:03;16.50;82.40
5899;DHT22;2975;50.956;6.962;2022-09-03T04:49:29;16.60;81.90
5899;DHT22;2975;50.956;6.962;2022-09-03T04:51:55;16.70;81.70
5899;DHT22;2975;50.956;6.962;2022-09-03T04:54:21;16.70;81.40
5899;DHT22;2975;50.956;6.962;2022-09-03T04:56:46;16.80;81.50
5899;DHT22;2975;50.956;6.962;2022-09-03T04:59:12;16.80;81.40
5899;DHT22;2975;50.956;6.962;2022-09-03T05:01:39;16.80;81.30
5899;DHT22;2975;50.956;6.962;2022-09-03T05:04:05;16.80;81.30
5899;DHT22;2975;50.956;6.962;2022-09-03T05:06:32;16.80;81.40
5899;DHT22;2975;50.956;6.962;2022-09-03T05:08:59;16.70;81.30
5899;DHT22;2975;50.956;6.962;2022-09-03T05:11:26;16.80;81.50
5899;DHT22;2975;50.956;6.962;2022-09-03T05:13:54;16.80;81.50
5899;DHT22;2975;50.956;6.962;2022-09-03T05:16:22;16.80;81.60
5899;DHT22;2975;50.956;6.962;2022-09-03T05:18:51;16.90;81.50
5899;DHT22;2975;50.956;6.962;2022-09-03T05:21:17;17.10;81.20
5899;DHT22;2975;50.956;6.962;2022-09-03T05:23:45;17.30;80.80
5899;DHT22;2975;50.956;6.962;2022-09-03T05:26:16;18.00;80.10
5899;DHT22;2975;50.956;6.962;2022-09-03T05:28:42;19.00;78.50
5899;DHT22;2975;50.956;6.962;2022-09-03T05:31:10;20.00;75.40
5899;DHT22;2975;50.956;6.962;2022-09-03T05:33:40;20.40;71.80
5899;DHT22;2975;50.956;6.962;2022-09-03T05:36:12;20.60;71.40
5899;DHT22;2975;50.956;6.962;2022-09-03T05:38:39;21.00;70.00
5899;DHT22;2975;50.956;6.962;2022-09-03T05:41:07;21.50;69.90
5899;DHT22;2975;50.956;6.962;2022-09-03T05:43:33;22.30;67.30
5899;DHT22;2975;50.956;6.962;2022-09-03T05:48:31;24.60;62.70
5899;DHT22;2975;50.956;6.962;2022-09-03T05:51:18;25.30;60.50
5899;DHT22;2975;50.956;6.962;2022-09-03T05:53:45;25.90;58.30
5899;DHT22;2975;50.956;6.962;2022-09-03T05:56:16;26.70;57.30
5899;DHT22;2975;50.956;6.962;2022-09-03T05:58:48;27.10;56.10
5899;DHT22;2975;50.956;6.962;2022-09-03T06:01:19;27.30;54.90
5899;DHT22;2975;50.956;6.962;2022-09-03T06:03:47;27.20;54.00
5899;DHT22;2975;50.956;6.962;2022-09-03T06:06:13;25.60;54.60
5899;DHT22;2975;50.956;6.962;2022-09-03T06:08:39;24.00;56.70
5899;DHT22;2975;50.956;6.962;2022-09-03T06:11:07;22.90;58.80
5899;DHT22;2975;50.956;6.962;2022-09-03T06:13:33;22.10;60.70
5899;DHT22;2975;50.956;6.962;2022-09-03T06:16:01;21.40;62.40
5899;DHT22;2975;50.956;6.962;2022-09-03T06:18:27;21.10;63.80
5899;DHT22;2975;50.956;6.962;2022-09-03T06:21:06;20.90;64.90
5899;DHT22;2975;50.956;6.962;2022-09-03T06:23:33;20.60;65.50
5899;DHT22;2975;50.956;6.962;2022-09-03T06:28:33;20.40;66.80
5899;DHT22;2975;50.956;6.962;2022-09-03T06:31:01;20.30;66.90
5899;DHT22;2975;50.956;6.962;2022-09-03T06:33:28;20.20;67.40
5899;DHT22;2975;50.956;6.962;2022-09-03T06:35:59;20.20;67.70
5899;DHT22;2975;50.956;6.962;2022-09-03T06:38:28;20.30;67.80
5899;DHT22;2975;50.956;6.962;2022-09-03T06:41:01;20.30;67.60
5899;DHT22;2975;50.956;6.962;2022-09-03T06:43:29;20.30;67.80
5899;DHT22;2975;50.956;6.962;2022-09-03T06:45:57;20.40;67.50
5899;DHT22;2975;50.956;6.962;2022-09-03T06:48:24;20.50;67.60
5899;DHT22;2975;50.956;6.962;2022-09-03T06:50:58;20.50;67.20
5899;DHT22;2975;50.956;6.962;2022-09-03T06:53:29;20.50;67.40
5899;DHT22;2975;50.956;6.962;2022-09-03T06:55:58;20.70;67.50
5899;DHT22;2975;50.956;6.962;2022-09-03T06:58:27;20.90;66.90
5899;DHT22;2975;50.956;6.962;2022-09-03T07:00:53;20.90;67.60
5899;DHT22;2975;50.956;6.962;2022-09-03T07:03:19;21.10;68.50
5899;DHT22;2975;50.956;6.962;2022-09-03T07:05:46;21.20;69.00
5899;DHT22;2975;50.956;6.962;2022-09-03T07:08:12;21.40;67.20
5899;DHT22;2975;50.956;6.962;2022-09-03T07:10:38;21.50;67.40
5899;DHT22;2975;50.956;6.962;2022-09-03T07:13:04;21.50;66.30
5899;DHT22;2975;50.956;6.962;2022-09-03T07:15:33;21.60;66.60
5899;DHT22;2975;50.956;6.962;2022-09-03T07:17:59;21.80;65.10
5899;DHT22;2975;50.956;6.962;2022-09-03T07:20:25;22.00;65.00
5899;DHT22;2975;50.956;6.962;2022-09-03T07:22:54;22.10;65.10
5899;DHT22;2975;50.956;6.962;2022-09-03T07:25:20;22.40;64.40
5899;DHT22;2975;50.956;6.962;2022-09-03T07:27:46;22.50;64.30
5899;DHT22;2975;50.956;6.962;2022-09-03T07:30:16;22.60;63.60
5899;DHT22;2975;50.956;6.962;2022-09-03T07:32:41;22.50;64.80
5899;DHT22;2975;50.956;6.962;2022-09-03T07:35:07;22.50;64.40
5899;DHT22;2975;50.956;6.962;2022-09-03T07:37:33;22.40;64.70
5899;DHT22;2975;50.956;6.962;2022-09-03T07:39:59;22.30;64.10
5899;DHT22;2975;50.956;6.962;2022-09-03T07:42:26;22.20;65.20
5899;DHT22;2975;50.956;6.962;2022-09-03T07:44:53;22.20;65.20
5899;DHT22;2975;50.956;6.962;2022-09-03T07:47:19;22.20;66.40
5899;DHT22;2975;50.956;6.962;2022-09-03T07:49:45;22.30;66.60
5899;DHT22;2975;50.956;6.962;2022-09-03T07:52:11;22.40;66.60
5899;DHT22;2975;50.956;6.962;2022-09-03T07:54:36;22.50;66.00
5899;DHT22;2975;50.956;6.962;2022-09-03T07:57:02;22.70;66.00
5899;DHT22;2975;50.956;6.962;2022-09-03T07:59:27;22.80;67.10
5899;DHT22;2975;50.956;6.962;2022-09-03T08:01:53;23.00;65.50
5899;DHT22;2975;50.956;6.962;2022-09-03T08:04:19;23.20;65.40
5899;DHT22;2975;50.956;6.962;2022-09-03T08:06:46;23.40;64.30
5899;DHT22;2975;50.956;6.962;2022-09-03T08:09:12;23.50;63.50
5899;DHT22;2975;50.956;6.962;2022-09-03T08:11:40;23.80;63.10
5899;DHT22;2975;50.956;6.962;2022-09-03T08:14:09;23.90;62.60
5899;DHT22;2975;50.956;6.962;2022-09-03T08:16:40;24.10;62.10
5899;DHT22;2975;50.956;6.962;2022-09-03T08:19:06;24.30;61.70
5899;DHT22;2975;50.956;6.962;2022-09-03T08:21:33;24.20;61.30
5899;DHT22;2975;50.956;6.962;2022-09-03T08:23:59;24.40;61.10
5899;DHT22;2975;50.956;6.962;2022-09-03T08:26:33;24.30;60.90
5899;DHT22;2975;50.956;6.962;2022-09-03T08:28:59;24.20;61.30
5899;DHT22;2975;50.956;6.962;2022-09-03T08:31:25;24.20;61.70
5899;DHT22;2975;50.956;6.962;2022-09-03T08:33:54;24.30;61.50
5899;DHT22;2975;50.956;6.962;2022-09-03T08:36:21;24.00;61.90
5899;DHT22;2975;50.956;6.962;2022-09-03T08:38:48;23.70;62.40
5899;DHT22;2975;50.956;6.962;2022-09-03T08:41:27;23.70;62.40
5899;DHT22;2975;50.956;6.962;2022-09-03T08:49:13;23.60;62.20
5899;DHT22;2975;50.956;6.962;2022-09-03T08:51:42;23.50;62.90
5899;DHT22;2975;50.956;6.962;2022-09-03T08:54:12;23.40;63.60
5899;DHT22;2975;50.956;6.962;2022-09-03T08:56:40;23.30;64.30
5899;DHT22;2975;50.956;6.962;2022-09-03T08:59:07;23.20;65.20
5899;DHT22;2975;50.956;6.962;2022-09-03T09:06:54;23.30;66.90
5899;DHT22;2975;50.956;6.962;2022-09-03T09:23:04;24.20;66.20
5899;DHT22;2975;50.956;6.962;2022-09-03T09:25:31;24.30;64.80
5899;DHT22;2975;50.956;6.962;2022-09-03T09:28:04;24.20;65.40
5899;DHT22;2975;50.956;6.962;2022-09-03T09:30:32;24.00;65.90
5899;DHT22;2975;50.956;6.962;2022-09-03T09:32:58;23.70;67.30
5899;DHT22;2975;50.956;6.962;2022-09-03T09:35:25;23.40;70.00
5899;DHT22;2975;50.956;6.962;2022-09-03T09:43:03;22.90;75.30
5899;DHT22;2975;50.956;6.962;2022-09-03T09:45:29;22.80;74.70
5899;DHT22;2975;50.956;6.962;2022-09-03T09:47:56;22.70;77.60
5899;DHT22;2975;50.956;6.962;2022-09-03T09:50:22;22.70;77.60
5899;DHT22;2975;50.956;6.962;2022-09-03T09:52:48;22.70;79.10
5899;DHT22;2975;50.956;6.962;2022-09-03T09:55:23;22.70;81.00
5899;DHT22;2975;50.956;6.962;2022-09-03T09:57:52;22.80;81.30
5899;DHT22;2975;50.956;6.962;2022-09-03T10:00:18;22.90;81.60
5899;DHT22;2975;50.956;6.962;2022-09-03T10:02:52;22.90;83.50
5899;DHT22;2975;50.956;6.962;2022-09-03T10:05:26;23.10;82.70
5899;DHT22;2975;50.956;6.962;2022-09-03T10:08:00;23.10;80.70
5899;DHT22;2975;50.956;6.962;2022-09-03T10:10:28;23.30;82.30
5899;DHT22;2975;50.956;6.962;2022-09-03T10:15:46;23.60;80.80
5899;DHT22;2975;50.956;6.962;2022-09-03T10:18:38;24.00;80.00
5899;DHT22;2975;50.956;6.962;2022-09-03T10:21:33;24.10;79.20
5899;DHT22;2975;50.956;6.962;2022-09-03T10:27:08;24.40;77.70
5899;DHT22;2975;50.956;6.962;2022-09-03T10:29:35;24.30;77.70
5899;DHT22;2975;50.956;6.962;2022-09-03T10:32:30;24.50;76.70
5899;DHT22;2975;50.956;6.962;2022-09-03T10:43:32;24.90;74.10
5899;DHT22;2975;50.956;6.962;2022-09-03T10:51:46;25.60;71.70
5899;DHT22;2975;50.956;6.962;2022-09-03T11:05:28;25.20;70.30
5899;DHT22;2975;50.956;6.962;2022-09-03T11:08:27;25.10;70.30
5899;DHT22;2975;50.956;6.962;2022-09-03T11:10:59;24.90;71.20
5899;DHT22;2975;50.956;6.962;2022-09-03T11:13:36;24.90;71.50
5899;DHT22;2975;50.956;6.962;2022-09-03T11:18:41;24.90;71.00
5899;DHT22;2975;50.956;6.962;2022-09-03T11:21:12;24.70;71.90
5899;DHT22;2975;50.956;6.962;2022-09-03T11:23:44;24.50;72.80
5899;DHT22;2975;50.956;6.962;2022-09-03T11:26:14;24.60;72.60
5899;DHT22;2975;50.956;6.962;2022-09-03T11:29:08;24.50;73.00
5899;DHT22;2975;50.956;6.962;2022-09-03T11:31:58;24.60;73.00
5899;DHT22;2975;50.956;6.962;2022-09-03T11:34:31;24.80;72.50
5899;DHT22;2975;50.956;6.962;2022-09-03T11:39:56;25.40;71.00
5899;DHT22;2975;50.956;6.962;2022-09-03T11:42:37;25.60;70.60
5899;DHT22;2975;50.956;6.962;2022-09-03T11:45:41;25.70;70.60
5899;DHT22;2975;50.956;6.962;2022-09-03T11:48:17;25.60;70.00
5899;DHT22;2975;50.956;6.962;2022-09-03T11:50:52;25.30;71.00
5899;DHT22;2975;50.956;6.962;2022-09-03T11:58:35;25.10;72.50
5899;DHT22;2975;50.956;6.962;2022-09-03T12:01:07;25.10;72.50
5899;DHT22;2975;50.956;6.962;2022-09-03T12:03:52;25.10;73.30
5899;DHT22;2975;50.956;6.962;2022-09-03T12:14:57;24.70;74.60
5899;DHT22;2975;50.956;6.962;2022-09-03T12:17:43;24.60;74.60
5899;DHT22;2975;50.956;6.962;2022-09-03T12:20:34;24.80;75.10
5899;DHT22;2975;50.956;6.962;2022-09-03T12:23:00;24.90;74.10
5899;DHT22;2975;50.956;6.962;2022-09-03T12:25:27;24.80;74.20
5899;DHT22;2975;50.956;6.962;2022-09-03T12:27:53;24.80;74.20
5899;DHT22;2975;50.956;6.962;2022-09-03T12:30:22;24.50;74.60
5899;DHT22;2975;50.956;6.962;2022-09-03T12:32:49;24.40;75.50
5899;DHT22;2975;50.956;6.962;2022-09-03T12:35:21;24.50;75.90
5899;DHT22;2975;50.956;6.962;2022-09-03T12:37:50;24.50;75.70
5899;DHT22;2975;50.956;6.962;2022-09-03T12:40:21;24.70;76.20
5899;DHT22;2975;50.956;6.962;2022-09-03T12:42:48;24.70;75.20
5899;DHT22;2975;50.956;6.962;2022-09-03T12:45:24;24.70;75.50
5899;DHT22;2975;50.956;6.962;2022-09-03T12:47:51;24.90;74.90
5899;DHT22;2975;50.956;6.962;2022-09-03T12:50:22;24.90;75.40
5899;DHT22;2975;50.956;6.962;2022-09-03T12:53:10;24.90;75.40
5899;DHT22;2975;50.956;6.962;2022-09-03T12:55:46;25.10;74.80
5899;DHT22;2975;50.956;6.962;2022-09-03T12:58:32;25.00;74.90
5899;DHT22;2975;50.956;6.962;2022-09-03T13:03:31;25.20;73.70
5899;DHT22;2975;50.956;6.962;2022-09-03T13:06:07;25.00;74.70
5899;DHT22;2975;50.956;6.962;2022-09-03T13:08:48;24.80;75.70
5899;DHT22;2975;50.956;6.962;2022-09-03T13:11:17;24.80;76.20
5899;DHT22;2975;50.956;6.962;2022-09-03T13:35:32;25.40;75.70
5899;DHT22;2975;50.956;6.962;2022-09-03T13:38:23;25.50;75.20
5899;DHT22;2975;50.956;6.962;2022-09-03T13:40:59;25.60;75.50
5899;DHT22;2975;50.956;6.962;2022-09-03T13:43:53;25.60;75.80
5899;DHT22;2975;50.956;6.962;2022-09-03T13:46:58;25.40;76.00
5899;DHT22;2975;50.956;6.962;2022-09-03T13:52:37;25.30;76.60
5899;DHT22;2975;50.956;6.962;2022-09-03T13:58:27;25.40;76.70
5899;DHT22;2975;50.956;6.962;2022-09-03T14:03:45;25.50;76.60
5899;DHT22;2975;50.956;6.962;2022-09-03T14:06:41;25.50;76.40
5899;DHT22;2975;50.956;6.962;2022-09-03T14:12:43;25.50;77.00
5899;DHT22;2975;50.956;6.962;2022-09-03T14:18:28;25.30;78.10
5899;DHT22;2975;50.956;6.962;2022-09-03T14:26:29;25.40;77.30
5899;DHT22;2975;50.956;6.962;2022-09-03T14:29:02;25.50;77.20
5899;DHT22;2975;50.956;6.962;2022-09-03T14:37:33;25.70;76.70
5899;DHT22;2975;50.956;6.962;2022-09-03T14:40:24;25.90;75.60
5899;DHT22;2975;50.956;6.962;2022-09-03T14:53:56;25.60;75.90
5899;DHT22;2975;50.956;6.962;2022-09-03T14:56:32;25.70;75.80
5899;DHT22;2975;50.956;6.962;2022-09-03T15:01:36;25.90;75.20
5899;DHT22;2975;50.956;6.962;2022-09-03T15:04:08;25.80;75.60
5899;DHT22;2975;50.956;6.962;2022-09-03T15:14:55;25.80;75.20
5899;DHT22;2975;50.956;6.962;2022-09-03T15:36:53;26.20;74.60
5899;DHT22;2975;50.956;6.962;2022-09-03T15:39:24;26.20;74.50
5899;DHT22;2975;50.956;6.962;2022-09-03T15:42:13;26.20;74.50
5899;DHT22;2975;50.956;6.962;2022-09-03T15:44:44;26.20;74.30
5899;DHT22;2975;50.956;6.962;2022-09-03T15:50:08;26.10;74.30
5899;DHT22;2975;50.956;6.962;2022-09-03T15:52:59;26.00;74.60
5899;DHT22;2975;50.956;6.962;2022-09-03T15:58:04;25.80;75.00
5899;DHT22;2975;50.956;6.962;2022-09-03T16:00:48;25.60;75.10
5899;DHT22;2975;50.956;6.962;2022-09-03T16:03:20;25.50;75.40
5899;DHT22;2975;50.956;6.962;2022-09-03T16:08:39;25.30;76.40
5899;DHT22;2975;50.956;6.962;2022-09-03T16:11:21;25.20;76.40
5899;DHT22;2975;50.956;6.962;2022-09-03T16:16:25;25.30;76.40
5899;DHT22;2975;50.956;6.962;2022-09-03T16:19:04;25.20;76.40
5899;DHT22;2975;50.956;6.962;2022-09-03T16:29:15;25.00;79.20
5899;DHT22;2975;50.956;6.962;2022-09-03T16:43:14;25.10;82.80
5899;DHT22;2975;50.956;6.962;2022-09-03T16:51:21;24.70;86.90
5899;DHT22;2975;50.956;6.962;2022-09-03T17:13:54;24.00;94.20
5899;DHT22;2975;50.956;6.962;2022-09-03T17:19:38;24.00;94.50
5899;DHT22;2975;50.956;6.962;2022-09-03T17:25:39;23.80;94.10
5899;DHT22;2975;50.956;6.962;2022-09-03T17:33:54;23.70;94.20
5899;DHT22;2975;50.956;6.962;2022-09-03T17:36:26;23.70;94.40
5899;DHT22;2975;50.956;6.962;2022-09-03T17:41:55;23.50;94.60
5899;DHT22;2975;50.956;6.962;2022-09-03T17:49:44;23.00;95.50
5899;DHT22;2975;50.956;6.962;2022-09-03T17:52:19;22.90;95.90
5899;DHT22;2975;50.956;6.962;2022-09-03T17:54:50;22.90;96.30
5899;DHT22;2975;50.956;6.962;2022-09-03T17:57:26;22.80;97.50
5899;DHT22;2975;50.956;6.962;2022-09-03T18:00:03;22.60;97.20
5899;DHT22;2975;50.956;6.962;2022-09-03T18:02:44;22.40;98.30
5899;DHT22;2975;50.956;6.962;2022-09-03T18:05:32;22.10;98.60
5899;DHT22;2975;50.956;6.962;2022-09-03T18:10:43;21.70;99.20
5899;DHT22;2975;50.956;6.962;2022-09-03T18:15:59;21.30;99.90
5899;DHT22;2975;50.956;6.962;2022-09-03T18:18:30;21.00;99.90
5899;DHT22;2975;50.956;6.962;2022-09-03T18:20:59;20.90;99.90
5899;DHT22;2975;50.956;6.962;2022-09-03T18:23:57;21.00;99.90
5899;DHT22;2975;50.956;6.962;2022-09-03T18:26:48;21.00;99.90
5899;DHT22;2975;50.956;6.962;2022-09-03T18:29:38;20.90;99.90
5899;DHT22;2975;50.956;6.962;2022-09-03T18:32:26;20.80;99.90
5899;DHT22;2975;50.956;6.962;2022-09-03T18:35:11;20.80;99.90
5899;DHT22;2975;50.956;6.962;2022-09-03T18:37:56;20.80;99.90
5899;DHT22;2975;50.956;6.962;2022-09-03T18:40:53;20.70;99.90
5899;DHT22;2975;50.956;6.962;2022-09-03T18:46:58;20.40;99.90
5899;DHT22;2975;50.956;6.962;2022-09-03T19:01:24;19.90;99.90
5899;DHT22;2975;50.956;6.962;2022-09-03T19:10:27;19.70;99.90
5899;DHT22;2975;50.956;6.962;2022-09-03T19:13:34;19.70;99.90
5899;DHT22;2975;50.956;6.962;2022-09-03T19:19:35;19.70;99.90
5899;DHT22;2975;50.956;6.962;2022-09-03T19:22:35;19.80;99.90
5899;DHT22;2975;50.956;6.962;2022-09-03T19:25:21;19.80;99.90
5899;DHT22;2975;50.956;6.962;2022-09-03T19:28:16;19.80;99.90
5899;DHT22;2975;50.956;6.962;2022-09-03T19:34:29;19.60;99.90
5899;DHT22;2975;50.956;6.962;2022-09-03T19:46:35;19.90;99.90
5899;DHT22;2975;50.956;6.962;2022-09-03T19:52:54;19.90;99.90
5899;DHT22;2975;50.956;6.962;2022-09-03T19:55:54;19.80;99.90
5899;DHT22;2975;50.956;6.962;2022-09-03T19:58:47;19.70;99.90
5899;DHT22;2975;50.956;6.962;2022-09-03T20:01:35;19.50;99.90
5899;DHT22;2975;50.956;6.962;2022-09-03T20:04:26;19.30;99.90
5899;DHT22;2975;50.956;6.962;2022-09-03T20:07:11;19.20;99.90
5899;DHT22;2975;50.956;6.962;2022-09-03T20:09:57;19.20;99.90
5899;DHT22;2975;50.956;6.962;2022-09-03T20:12:50;19.30;99.90
5899;DHT22;2975;50.956;6.962;2022-09-03T20:15:18;19.10;99.90
5899;DHT22;2975;50.956;6.962;2022-09-03T20:23:19;19.00;99.90
5899;DHT22;2975;50.956;6.962;2022-09-03T20:26:04;19.00;99.90
5899;DHT22;2975;50.956;6.962;2022-09-03T20:28:44;19.00;99.90
5899;DHT22;2975;50.956;6.962;2022-09-03T21:10:32;18.50;99.90
5899;DHT22;2975;50.956;6.962;2022-09-03T21:16:12;18.40;99.90
5899;DHT22;2975;50.956;6.962;2022-09-03T21:27:13;18.40;99.90
5899;DHT22;2975;50.956;6.962;2022-09-03T21:29:46;18.40;99.90
5899;DHT22;2975;50.956;6.962;2022-09-03T21:32:22;18.40;99.90
5899;DHT22;2975;50.956;6.962;2022-09-03T21:34:54;18.40;99.90
5899;DHT22;2975;50.956;6.962;2022-09-03T21:37:23;18.30;99.90
5899;DHT22;2975;50.956;6.962;2022-09-03T21:39:53;18.30;99.90
5899;DHT22;2975;50.956;6.962;2022-09-03T21:42:50;18.30;99.90
5899;DHT22;2975;50.956;6.962;2022-09-03T21:45:27;18.20;99.90
5899;DHT22;2975;50.956;6.962;2022-09-03T21:48:02;18.10;99.90
5899;DHT22;2975;50.956;6.962;2022-09-03T21:50:59;18.10;99.90
5899;DHT22;2975;50.956;6.962;2022-09-03T21:53:31;18.10;99.90
5899;DHT22;2975;50.956;6.962;2022-09-03T22:02:31;18.10;99.90
5899;DHT22;2975;50.956;6.962;2022-09-03T22:04:58;18.10;99.90
5899;DHT22;2975;50.956;6.962;2022-09-03T22:10:47;18.10;99.90
5899;DHT22;2975;50.956;6.962;2022-09-03T22:15:49;18.10;99.90
5899;DHT22;2975;50.956;6.962;2022-09-03T22:18:26;18.00;99.90
5899;DHT22;2975;50.956;6.962;2022-09-03T22:21:27;17.90;99.90
5899;DHT22;2975;50.956;6.962;2022-09-03T22:26:48;17.80;99.90
5899;DHT22;2975;50.956;6.962;2022-09-03T22:32:18;17.70;99.90
5899;DHT22;2975;50.956;6.962;2022-09-03T22:35:12;17.70;99.90
5899;DHT22;2975;50.956;6.962;2022-09-03T22:40:21;17.80;99.90
5899;DHT22;2975;50.956;6.962;2022-09-03T22:46:11;17.80;99.90
5899;DHT22;2975;50.956;6.962;2022-09-03T22:51:20;18.00;99.90
5899;DHT22;2975;50.956;6.962;2022-09-03T22:54:12;17.90;99.90
5899;DHT22;2975;50.956;6.962;2022-09-03T22:56:41;17.80;99.90
5899;DHT22;2975;50.956;6.962;2022-09-03T22:59:18;17.80;99.90
5899;DHT22;2975;50.956;6.962;2022-09-03T23:05:17;17.90;99.90
5899;DHT22;2975;50.956;6.962;2022-09-03T23:10:29;17.80;99.90
5899;DHT22;2975;50.956;6.962;2022-09-03T23:13:09;17.90;99.90
5899;DHT22;2975;50.956;6.962;2022-09-03T23:15:39;17.90;99.90
5899;DHT22;2975;50.956;6.962;2022-09-03T23:18:13;17.80;99.90
5899;DHT22;2975;50.956;6.962;2022-09-03T23:20:46;17.70;99.90
5899;DHT22;2975;50.956;6.962;2022-09-03T23:23:37;17.70;99.90
5899;DHT22;2975;50.956;6.962;2022-09-03T23:28:58;17.90;99.90
5899;DHT22;2975;50.956;6.962;2022-09-03T23:31:27;17.90;99.90
5899;DHT22;2975;50.956;6.962;2022-09-03T23:33:52;17.80;99.90
5899;DHT22;2975;50.956;6.962;2022-09-03T23:39:47;17.80;99.90
5899;DHT22;2975;50.956;6.962;2022-09-03T23:47:45;17.70;99.90
5899;DHT22;2975;50.956;6.962;2022-09-03T23:50:30;17.60;99.90
5899;DHT22;2975;50.956;6.962;2022-09-03T23:53:11;17.50;99.90
5899;DHT22;2975;50.956;6.962;2022-09-03T23:58:33;17.40;99.90
